sensor_id;sensor_type;location;lat;lon;timestamp;P1;durP1;ratioP1;P2;durP2;ratioP2
20557;SDS011;10437;48.156;11.530;2023-02-13T00:01:16;27.20;;;10.27;;
20557;SDS011;10437;48.156;11.530;2023-02-13T00:03:45;20.50;;;9.77;;
20557;SDS011;10437;48.156;11.530;2023-02-13T00:06:11;27.83;;;9.43;;
20557;SDS011;10437;48.156;11.530;2023-02-13T00:08:39;28.27;;;9.17;;
20557;SDS011;10437;48.156;11.530;2023-02-13T00:11:06;24.50;;;9.17;;
20557;SDS011;10437;48.156;11.530;2023-02-13T00:13:33;28.10;;;10.20;;
20557;SDS011;10437;48.156;11.530;2023-02-13T00:16:01;27.73;;;10.23;;
20557;SDS011;10437;48.156;11.530;2023-02-13T00:18:31;25.77;;;10.57;;
20557;SDS011;10437;48.156;11.530;2023-02-13T00:21:01;24.00;;;10.10;;
20557;SDS011;10437;48.156;11.530;2023-02-13T00:23:30;27.33;;;11.43;;
20557;SDS011;10437;48.156;11.530;2023-02-13T00:25:58;27.40;;;10.33;;
20557;SDS011;10437;48.156;11.530;2023-02-13T00:28:25;26.70;;;10.53;;
20557;SDS011;10437;48.156;11.530;2023-02-13T00:30:52;29.43;;;11.60;;
20557;SDS011;10437;48.156;11.530;2023-02-13T00:33:19;35.60;;;11.30;;
20557;SDS011;10437;48.156;11.530;2023-02-13T00:35:47;25.97;;;10.57;;
20557;SDS011;10437;48.156;11.530;2023-02-13T00:38:15;25.97;;;11.17;;
20557;SDS011;10437;48.156;11.530;2023-02-13T00:40:42;32.40;;;11.33;;
20557;SDS011;10437;48.156;11.530;2023-02-13T00:43:09;38.23;;;12.03;;
20557;SDS011;10437;48.156;11.530;2023-02-13T00:45:36;33.43;;;12.77;;
20557;SDS011;10437;48.156;11.530;2023-02-13T00:48:03;33.13;;;12.17;;
20557;SDS011;10437;48.156;11.530;2023-02-13T00:50:30;32.33;;;11.30;;
20557;SDS011;10437;48.156;11.530;2023-02-13T00:52:57;32.03;;;12.10;;
20557;SDS011;10437;48.156;11.530;2023-02-13T00:55:26;31.57;;;11.87;;
20557;SDS011;10437;48.156;11.530;2023-02-13T00:57:53;28.43;;;11.37;;
20557;SDS011;10437;48.156;11.530;2023-02-13T01:00:20;30.00;;;12.17;;
20557;SDS011;10437;48.156;11.530;2023-02-13T01:02:47;30.07;;;12.07;;
20557;SDS011;10437;48.156;11.530;2023-02-13T01:05:14;34.90;;;12.20;;
20557;SDS011;10437;48.156;11.530;2023-02-13T01:07:41;34.00;;;11.60;;
20557;SDS011;10437;48.156;11.530;2023-02-13T01:10:09;33.53;;;12.40;;
20557;SDS011;10437;48.156;11.530;2023-02-13T01:12:37;31.63;;;12.03;;
20557;SDS011;10437;48.156;11.530;2023-02-13T01:15:04;32.37;;;13.43;;
20557;SDS011;10437;48.156;11.530;2023-02-13T01:17:32;35.73;;;11.67;;
20557;SDS011;10437;48.156;11.530;2023-02-13T01:19:59;35.27;;;12.73;;
20557;SDS011;10437;48.156;11.530;2023-02-13T01:22:26;32.60;;;12.50;;
20557;SDS011;10437;48.156;11.530;2023-02-13T01:24:53;37.73;;;12.00;;
20557;SDS011;10437;48.156;11.530;2023-02-13T01:27:20;34.67;;;12.70;;
20557;SDS011;10437;48.156;11.530;2023-02-13T01:29:48;34.57;;;13.03;;
20557;SDS011;10437;48.156;11.530;2023-02-13T01:32:15;33.53;;;11.80;;
20557;SDS011;10437;48.156;11.530;2023-02-13T01:34:42;32.93;;;12.60;;
20557;SDS011;10437;48.156;11.530;2023-02-13T01:37:09;33.27;;;12.83;;
20557;SDS011;10437;48.156;11.530;2023-02-13T01:39:37;30.90;;;12.50;;
20557;SDS011;10437;48.156;11.530;2023-02-13T01:42:04;34.67;;;12.77;;
20557;SDS011;10437;48.156;11.530;2023-02-13T01:44:49;36.07;;;12.60;;
20557;SDS011;10437;48.156;11.530;2023-02-13T01:47:21;33.60;;;13.60;;
20557;SDS011;10437;48.156;11.530;2023-02-13T01:49:53;30.00;;;11.33;;
20557;SDS011;10437;48.156;11.530;2023-02-13T01:52:27;32.30;;;11.90;;
20557;SDS011;10437;48.156;11.530;2023-02-13T01:54:55;29.50;;;11.50;;
20557;SDS011;10437;48.156;11.530;2023-02-13T01:57:22;32.20;;;12.27;;
20557;SDS011;10437;48.156;11.530;2023-02-13T01:59:55;33.23;;;12.47;;
20557;SDS011;10437;48.156;11.530;2023-02-13T02:02:24;30.37;;;11.40;;
20557;SDS011;10437;48.156;11.530;2023-02-13T02:04:52;31.17;;;12.40;;
20557;SDS011;10437;48.156;11.530;2023-02-13T02:07:20;29.37;;;11.60;;
20557;SDS011;10437;48.156;11.530;2023-02-13T02:09:49;29.00;;;11.80;;
20557;SDS011;10437;48.156;11.530;2023-02-13T02:12:21;30.97;;;12.40;;
20557;SDS011;10437;48.156;11.530;2023-02-13T02:14:51;26.23;;;11.50;;
20557;SDS011;10437;48.156;11.530;2023-02-13T02:17:21;29.50;;;11.13;;
20557;SDS011;10437;48.156;11.530;2023-02-13T02:19:52;29.07;;;11.53;;
20557;SDS011;10437;48.156;11.530;2023-02-13T02:22:37;28.70;;;11.83;;
20557;SDS011;10437;48.156;11.530;2023-02-13T02:34:33;29.57;;;11.67;;
20557;SDS011;10437;48.156;11.530;2023-02-13T02:37:11;30.83;;;11.23;;
20557;SDS011;10437;48.156;11.530;2023-02-13T02:39:49;30.77;;;11.80;;
20557;SDS011;10437;48.156;11.530;2023-02-13T02:42:27;27.50;;;11.07;;
20557;SDS011;10437;48.156;11.530;2023-02-13T02:45:04;29.77;;;10.77;;
20557;SDS011;10437;48.156;11.530;2023-02-13T02:47:40;28.33;;;10.80;;
20557;SDS011;10437;48.156;11.530;2023-02-13T02:50:32;26.73;;;11.10;;
20557;SDS011;10437;48.156;11.530;2023-02-13T02:53:07;30.07;;;11.70;;
20557;SDS011;10437;48.156;11.530;2023-02-13T02:55:45;29.63;;;11.30;;
20557;SDS011;10437;48.156;11.530;2023-02-13T02:58:18;28.80;;;12.60;;
20557;SDS011;10437;48.156;11.530;2023-02-13T03:01:05;31.03;;;12.40;;
20557;SDS011;10437;48.156;11.530;2023-02-13T03:03:56;32.07;;;12.10;;
20557;SDS011;10437;48.156;11.530;2023-02-13T03:06:43;27.43;;;11.57;;
20557;SDS011;10437;48.156;11.530;2023-02-13T03:09:14;28.83;;;11.57;;
20557;SDS011;10437;48.156;11.530;2023-02-13T03:12:02;27.93;;;11.27;;
20557;SDS011;10437;48.156;11.530;2023-02-13T03:14:47;28.53;;;11.57;;
20557;SDS011;10437;48.156;11.530;2023-02-13T03:17:15;31.17;;;12.53;;
20557;SDS011;10437;48.156;11.530;2023-02-13T03:20:11;31.47;;;12.20;;
20557;SDS011;10437;48.156;11.530;2023-02-13T03:23:06;30.23;;;12.00;;
20557;SDS011;10437;48.156;11.530;2023-02-13T03:25:43;29.90;;;12.37;;
20557;SDS011;10437;48.156;11.530;2023-02-13T03:28:29;29.03;;;12.03;;
20557;SDS011;10437;48.156;11.530;2023-02-13T03:31:17;31.27;;;12.83;;
20557;SDS011;10437;48.156;11.530;2023-02-13T03:33:53;30.90;;;10.97;;
20557;SDS011;10437;48.156;11.530;2023-02-13T03:36:28;29.03;;;11.80;;
20557;SDS011;10437;48.156;11.530;2023-02-13T03:39:18;29.67;;;11.60;;
20557;SDS011;10437;48.156;11.530;2023-02-13T03:41:49;24.30;;;10.50;;
20557;SDS011;10437;48.156;11.530;2023-02-13T03:44:22;26.60;;;10.97;;
20557;SDS011;10437;48.156;11.530;2023-02-13T03:46:52;29.03;;;11.57;;
20557;SDS011;10437;48.156;11.530;2023-02-13T03:49:23;28.80;;;11.87;;
20557;SDS011;10437;48.156;11.530;2023-02-13T03:52:14;28.90;;;11.50;;
20557;SDS011;10437;48.156;11.530;2023-02-13T03:54:47;24.93;;;11.30;;
20557;SDS011;10437;48.156;11.530;2023-02-13T03:57:33;23.97;;;10.27;;
20557;SDS011;10437;48.156;11.530;2023-02-13T04:00:19;26.40;;;11.27;;
20557;SDS011;10437;48.156;11.530;2023-02-13T04:02:49;25.07;;;10.93;;
20557;SDS011;10437;48.156;11.530;2023-02-13T04:05:23;23.30;;;10.83;;
20557;SDS011;10437;48.156;11.530;2023-02-13T04:07:54;22.73;;;9.67;;
20557;SDS011;10437;48.156;11.530;2023-02-13T04:10:21;23.30;;;10.23;;
20557;SDS011;10437;48.156;11.530;2023-02-13T04:12:52;24.00;;;10.80;;
20557;SDS011;10437;48.156;11.530;2023-02-13T04:15:26;25.40;;;10.57;;
20557;SDS011;10437;48.156;11.530;2023-02-13T04:17:58;23.93;;;10.00;;
20557;SDS011;10437;48.156;11.530;2023-02-13T04:20:30;26.33;;;10.63;;
20557;SDS011;10437;48.156;11.530;2023-02-13T04:23:02;23.40;;;9.87;;
20557;SDS011;10437;48.156;11.530;2023-02-13T04:25:30;22.03;;;9.53;;
20557;SDS011;10437;48.156;11.530;2023-02-13T04:27:57;25.57;;;10.37;;
20557;SDS011;10437;48.156;11.530;2023-02-13T04:30:24;27.17;;;10.27;;
20557;SDS011;10437;48.156;11.530;2023-02-13T04:32:52;22.80;;;10.57;;
20557;SDS011;10437;48.156;11.530;2023-02-13T04:35:19;26.23;;;11.07;;
20557;SDS011;10437;48.156;11.530;2023-02-13T04:37:46;24.73;;;10.87;;
20557;SDS011;10437;48.156;11.530;2023-02-13T04:40:15;25.97;;;10.97;;
20557;SDS011;10437;48.156;11.530;2023-02-13T04:42:42;22.20;;;9.97;;
20557;SDS011;10437;48.156;11.530;2023-02-13T04:45:09;21.47;;;9.97;;
20557;SDS011;10437;48.156;11.530;2023-02-13T04:47:36;22.30;;;10.30;;
20557;SDS011;10437;48.156;11.530;2023-02-13T04:50:04;22.40;;;9.90;;
20557;SDS011;10437;48.156;11.530;2023-02-13T04:52:31;20.40;;;9.60;;
20557;SDS011;10437;48.156;11.530;2023-02-13T04:54:58;21.20;;;8.90;;
20557;SDS011;10437;48.156;11.530;2023-02-13T04:57:27;20.93;;;9.07;;
20557;SDS011;10437;48.156;11.530;2023-02-13T04:59:54;21.10;;;9.63;;
20557;SDS011;10437;48.156;11.530;2023-02-13T05:02:21;20.47;;;9.70;;
20557;SDS011;10437;48.156;11.530;2023-02-13T05:04:48;22.40;;;9.47;;
20557;SDS011;10437;48.156;11.530;2023-02-13T05:07:15;20.37;;;9.83;;
20557;SDS011;10437;48.156;11.530;2023-02-13T05:09:42;20.77;;;9.97;;
20557;SDS011;10437;48.156;11.530;2023-02-13T05:12:10;23.23;;;10.33;;
20557;SDS011;10437;48.156;11.530;2023-02-13T05:14:38;22.50;;;10.90;;
20557;SDS011;10437;48.156;11.530;2023-02-13T05:17:05;22.23;;;10.13;;
20557;SDS011;10437;48.156;11.530;2023-02-13T05:19:32;19.73;;;9.60;;
20557;SDS011;10437;48.156;11.530;2023-02-13T05:21:59;21.10;;;9.77;;
20557;SDS011;10437;48.156;11.530;2023-02-13T05:24:44;22.87;;;9.87;;
20557;SDS011;10437;48.156;11.530;2023-02-13T05:27:11;24.93;;;11.00;;
20557;SDS011;10437;48.156;11.530;2023-02-13T05:29:39;21.53;;;10.23;;
20557;SDS011;10437;48.156;11.530;2023-02-13T05:32:06;24.60;;;10.63;;
20557;SDS011;10437;48.156;11.530;2023-02-13T05:34:33;21.40;;;10.47;;
20557;SDS011;10437;48.156;11.530;2023-02-13T05:37:00;23.63;;;10.87;;
20557;SDS011;10437;48.156;11.530;2023-02-13T05:39:27;24.23;;;11.10;;
20557;SDS011;10437;48.156;11.530;2023-02-13T05:41:55;23.70;;;11.00;;
20557;SDS011;10437;48.156;11.530;2023-02-13T05:44:22;29.40;;;12.03;;
20557;SDS011;10437;48.156;11.530;2023-02-13T05:46:50;28.10;;;12.50;;
20557;SDS011;10437;48.156;11.530;2023-02-13T05:49:17;26.43;;;11.97;;
20557;SDS011;10437;48.156;11.530;2023-02-13T05:51:45;25.70;;;11.73;;
20557;SDS011;10437;48.156;11.530;2023-02-13T05:54:12;27.07;;;12.33;;
20557;SDS011;10437;48.156;11.530;2023-02-13T05:56:39;25.50;;;11.93;;
20557;SDS011;10437;48.156;11.530;2023-02-13T05:59:06;27.70;;;12.87;;
20557;SDS011;10437;48.156;11.530;2023-02-13T06:01:33;26.73;;;12.23;;
20557;SDS011;10437;48.156;11.530;2023-02-13T06:04:02;26.23;;;11.57;;
20557;SDS011;10437;48.156;11.530;2023-02-13T06:06:29;24.17;;;11.13;;
20557;SDS011;10437;48.156;11.530;2023-02-13T06:08:56;25.93;;;11.83;;
20557;SDS011;10437;48.156;11.530;2023-02-13T06:11:23;32.77;;;12.73;;
20557;SDS011;10437;48.156;11.530;2023-02-13T06:13:50;23.00;;;11.37;;
20557;SDS011;10437;48.156;11.530;2023-02-13T06:16:17;26.00;;;11.90;;
20557;SDS011;10437;48.156;11.530;2023-02-13T06:18:44;22.83;;;11.80;;
20557;SDS011;10437;48.156;11.530;2023-02-13T06:21:13;29.07;;;12.00;;
20557;SDS011;10437;48.156;11.530;2023-02-13T06:23:40;21.27;;;10.83;;
20557;SDS011;10437;48.156;11.530;2023-02-13T06:26:07;26.80;;;12.27;;
20557;SDS011;10437;48.156;11.530;2023-02-13T06:28:34;30.50;;;12.83;;
20557;SDS011;10437;48.156;11.530;2023-02-13T06:31:01;28.07;;;11.80;;
20557;SDS011;10437;48.156;11.530;2023-02-13T06:33:28;30.20;;;13.23;;
20557;SDS011;10437;48.156;11.530;2023-02-13T06:35:56;30.30;;;13.03;;
20557;SDS011;10437;48.156;11.530;2023-02-13T06:38:24;33.00;;;14.30;;
20557;SDS011;10437;48.156;11.530;2023-02-13T06:40:51;29.50;;;13.23;;
20557;SDS011;10437;48.156;11.530;2023-02-13T06:43:18;38.10;;;16.57;;
20557;SDS011;10437;48.156;11.530;2023-02-13T06:45:45;31.50;;;14.40;;
20557;SDS011;10437;48.156;11.530;2023-02-13T06:48:12;28.20;;;13.27;;
20557;SDS011;10437;48.156;11.530;2023-02-13T06:50:40;29.37;;;13.00;;
20557;SDS011;10437;48.156;11.530;2023-02-13T06:53:07;28.17;;;13.60;;
20557;SDS011;10437;48.156;11.530;2023-02-13T06:55:35;28.57;;;13.47;;
20557;SDS011;10437;48.156;11.530;2023-02-13T06:58:03;34.17;;;13.77;;
20557;SDS011;10437;48.156;11.530;2023-02-13T07:00:30;26.33;;;12.07;;
20557;SDS011;10437;48.156;11.530;2023-02-13T07:03:00;35.10;;;14.97;;
20557;SDS011;10437;48.156;11.530;2023-02-13T07:05:28;27.10;;;11.87;;
20557;SDS011;10437;48.156;11.530;2023-02-13T07:07:55;33.03;;;13.67;;
20557;SDS011;10437;48.156;11.530;2023-02-13T07:10:23;29.40;;;12.70;;
20557;SDS011;10437;48.156;11.530;2023-02-13T07:12:51;28.77;;;12.60;;
20557;SDS011;10437;48.156;11.530;2023-02-13T07:15:18;30.23;;;13.03;;
20557;SDS011;10437;48.156;11.530;2023-02-13T07:17:45;31.47;;;13.63;;
20557;SDS011;10437;48.156;11.530;2023-02-13T07:20:12;33.17;;;13.80;;
20557;SDS011;10437;48.156;11.530;2023-02-13T07:22:39;28.77;;;13.33;;
20557;SDS011;10437;48.156;11.530;2023-02-13T07:25:07;32.10;;;13.47;;
20557;SDS011;10437;48.156;11.530;2023-02-13T07:27:34;27.80;;;13.00;;
20557;SDS011;10437;48.156;11.530;2023-02-13T07:30:03;29.93;;;13.97;;
20557;SDS011;10437;48.156;11.530;2023-02-13T07:32:30;33.67;;;13.40;;
20557;SDS011;10437;48.156;11.530;2023-02-13T07:34:57;32.30;;;14.23;;
20557;SDS011;10437;48.156;11.530;2023-02-13T07:37:26;30.77;;;14.70;;
20557;SDS011;10437;48.156;11.530;2023-02-13T07:39:53;28.63;;;12.80;;
20557;SDS011;10437;48.156;11.530;2023-02-13T07:42:20;27.07;;;13.23;;
20557;SDS011;10437;48.156;11.530;2023-02-13T07:44:47;28.60;;;12.93;;
20557;SDS011;10437;48.156;11.530;2023-02-13T07:47:16;30.90;;;13.67;;
20557;SDS011;10437;48.156;11.530;2023-02-13T07:49:43;28.93;;;13.17;;
20557;SDS011;10437;48.156;11.530;2023-02-13T07:52:10;34.73;;;13.70;;
20557;SDS011;10437;48.156;11.530;2023-02-13T07:54:37;29.83;;;13.43;;
20557;SDS011;10437;48.156;11.530;2023-02-13T07:57:11;31.17;;;14.13;;
20557;SDS011;10437;48.156;11.530;2023-02-13T07:59:38;29.53;;;14.03;;
20557;SDS011;10437;48.156;11.530;2023-02-13T08:02:05;33.23;;;13.27;;
20557;SDS011;10437;48.156;11.530;2023-02-13T08:04:33;31.87;;;14.80;;
20557;SDS011;10437;48.156;11.530;2023-02-13T08:07:00;30.33;;;13.93;;
20557;SDS011;10437;48.156;11.530;2023-02-13T08:09:27;29.63;;;13.77;;
20557;SDS011;10437;48.156;11.530;2023-02-13T08:12:12;30.90;;;13.63;;
20557;SDS011;10437;48.156;11.530;2023-02-13T08:14:39;32.40;;;14.67;;
20557;SDS011;10437;48.156;11.530;2023-02-13T08:17:08;31.13;;;13.63;;
20557;SDS011;10437;48.156;11.530;2023-02-13T08:19:36;28.97;;;13.80;;
20557;SDS011;10437;48.156;11.530;2023-02-13T08:22:03;36.77;;;14.90;;
20557;SDS011;10437;48.156;11.530;2023-02-13T08:24:31;33.80;;;14.77;;
20557;SDS011;10437;48.156;11.530;2023-02-13T08:26:58;32.50;;;14.40;;
20557;SDS011;10437;48.156;11.530;2023-02-13T08:29:25;33.90;;;14.20;;
20557;SDS011;10437;48.156;11.530;2023-02-13T08:31:52;36.47;;;14.33;;
20557;SDS011;10437;48.156;11.530;2023-02-13T08:34:19;39.17;;;15.13;;
20557;SDS011;10437;48.156;11.530;2023-02-13T08:36:47;33.33;;;13.67;;
20557;SDS011;10437;48.156;11.530;2023-02-13T08:39:14;34.33;;;14.07;;
20557;SDS011;10437;48.156;11.530;2023-02-13T08:41:41;32.60;;;14.30;;
20557;SDS011;10437;48.156;11.530;2023-02-13T08:44:08;35.43;;;14.30;;
20557;SDS011;10437;48.156;11.530;2023-02-13T08:46:36;32.77;;;13.93;;
20557;SDS011;10437;48.156;11.530;2023-02-13T08:49:03;34.30;;;14.10;;
20557;SDS011;10437;48.156;11.530;2023-02-13T08:51:30;31.40;;;14.73;;
20557;SDS011;10437;48.156;11.530;2023-02-13T08:53:59;33.90;;;15.07;;
20557;SDS011;10437;48.156;11.530;2023-02-13T08:56:26;33.13;;;15.03;;
20557;SDS011;10437;48.156;11.530;2023-02-13T08:58:53;35.90;;;15.03;;
20557;SDS011;10437;48.156;11.530;2023-02-13T09:01:20;32.27;;;15.10;;
20557;SDS011;10437;48.156;11.530;2023-02-13T09:03:48;32.13;;;14.53;;
20557;SDS011;10437;48.156;11.530;2023-02-13T09:06:15;29.23;;;14.33;;
20557;SDS011;10437;48.156;11.530;2023-02-13T09:08:42;31.67;;;13.83;;
20557;SDS011;10437;48.156;11.530;2023-02-13T09:11:10;34.23;;;15.57;;
20557;SDS011;10437;48.156;11.530;2023-02-13T09:13:37;37.30;;;15.33;;
20557;SDS011;10437;48.156;11.530;2023-02-13T09:16:05;36.70;;;14.80;;
20557;SDS011;10437;48.156;11.530;2023-02-13T09:18:33;34.47;;;14.73;;
20557;SDS011;10437;48.156;11.530;2023-02-13T09:21:01;32.87;;;15.00;;
20557;SDS011;10437;48.156;11.530;2023-02-13T09:23:30;34.00;;;14.63;;
20557;SDS011;10437;48.156;11.530;2023-02-13T09:25:58;30.70;;;14.57;;
20557;SDS011;10437;48.156;11.530;2023-02-13T09:28:27;33.77;;;14.97;;
20557;SDS011;10437;48.156;11.530;2023-02-13T09:30:54;35.47;;;15.33;;
20557;SDS011;10437;48.156;11.530;2023-02-13T09:33:22;33.17;;;15.50;;
20557;SDS011;10437;48.156;11.530;2023-02-13T09:35:49;35.40;;;15.83;;
20557;SDS011;10437;48.156;11.530;2023-02-13T09:38:16;35.27;;;14.87;;
20557;SDS011;10437;48.156;11.530;2023-02-13T09:40:44;33.53;;;15.63;;
20557;SDS011;10437;48.156;11.530;2023-02-13T09:43:16;33.73;;;15.70;;
20557;SDS011;10437;48.156;11.530;2023-02-13T09:45:54;31.93;;;14.83;;
20557;SDS011;10437;48.156;11.530;2023-02-13T09:48:27;35.27;;;15.30;;
20557;SDS011;10437;48.156;11.530;2023-02-13T09:50:55;36.53;;;15.67;;
20557;SDS011;10437;48.156;11.530;2023-02-13T09:53:23;35.17;;;16.20;;
20557;SDS011;10437;48.156;11.530;2023-02-13T09:55:57;29.40;;;14.87;;
20557;SDS011;10437;48.156;11.530;2023-02-13T09:58:36;36.40;;;14.97;;
20557;SDS011;10437;48.156;11.530;2023-02-13T10:01:16;34.10;;;15.07;;
20557;SDS011;10437;48.156;11.530;2023-02-13T10:03:50;32.80;;;13.93;;
20557;SDS011;10437;48.156;11.530;2023-02-13T10:06:28;34.97;;;14.90;;
20557;SDS011;10437;48.156;11.530;2023-02-13T10:09:00;32.57;;;14.40;;
20557;SDS011;10437;48.156;11.530;2023-02-13T10:11:47;34.40;;;14.17;;
20557;SDS011;10437;48.156;11.530;2023-02-13T10:14:28;33.57;;;14.80;;
20557;SDS011;10437;48.156;11.530;2023-02-13T10:17:03;37.67;;;15.13;;
20557;SDS011;10437;48.156;11.530;2023-02-13T10:19:34;31.50;;;14.17;;
20557;SDS011;10437;48.156;11.530;2023-02-13T10:22:06;31.13;;;14.60;;
20557;SDS011;10437;48.156;11.530;2023-02-13T10:24:38;35.57;;;14.27;;
20557;SDS011;10437;48.156;11.530;2023-02-13T10:27:13;35.40;;;15.30;;
20557;SDS011;10437;48.156;11.530;2023-02-13T10:29:46;30.30;;;13.40;;
20557;SDS011;10437;48.156;11.530;2023-02-13T10:32:46;31.07;;;13.50;;
20557;SDS011;10437;48.156;11.530;2023-02-13T10:35:35;30.27;;;13.63;;
20557;SDS011;10437;48.156;11.530;2023-02-13T10:38:08;34.27;;;14.33;;
20557;SDS011;10437;48.156;11.530;2023-02-13T10:40:39;36.17;;;14.57;;
20557;SDS011;10437;48.156;11.530;2023-02-13T10:43:18;35.17;;;12.67;;
20557;SDS011;10437;48.156;11.530;2023-02-13T10:45:51;41.87;;;16.27;;
20557;SDS011;10437;48.156;11.530;2023-02-13T10:51:15;31.40;;;14.97;;
20557;SDS011;10437;48.156;11.530;2023-02-13T10:53:50;34.67;;;15.03;;
20557;SDS011;10437;48.156;11.530;2023-02-13T10:56:32;32.97;;;14.40;;
20557;SDS011;10437;48.156;11.530;2023-02-13T10:59:15;31.50;;;14.07;;
20557;SDS011;10437;48.156;11.530;2023-02-13T11:01:54;34.20;;;16.10;;
20557;SDS011;10437;48.156;11.530;2023-02-13T11:04:27;37.43;;;14.80;;
20557;SDS011;10437;48.156;11.530;2023-02-13T11:06:55;33.73;;;15.43;;
20557;SDS011;10437;48.156;11.530;2023-02-13T11:09:24;29.03;;;13.73;;
20557;SDS011;10437;48.156;11.530;2023-02-13T11:11:51;35.57;;;14.20;;
20557;SDS011;10437;48.156;11.530;2023-02-13T11:14:19;33.03;;;13.23;;
20557;SDS011;10437;48.156;11.530;2023-02-13T11:16:48;29.53;;;13.30;;
20557;SDS011;10437;48.156;11.530;2023-02-13T11:19:19;29.33;;;13.43;;
20557;SDS011;10437;48.156;11.530;2023-02-13T11:21:54;29.30;;;13.73;;
20557;SDS011;10437;48.156;11.530;2023-02-13T11:24:23;26.73;;;13.33;;
20557;SDS011;10437;48.156;11.530;2023-02-13T11:26:52;27.57;;;13.33;;
20557;SDS011;10437;48.156;11.530;2023-02-13T11:29:24;36.83;;;14.17;;
20557;SDS011;10437;48.156;11.530;2023-02-13T11:32:00;28.97;;;12.90;;
20557;SDS011;10437;48.156;11.530;2023-02-13T11:34:30;33.20;;;14.83;;
20557;SDS011;10437;48.156;11.530;2023-02-13T11:37:12;31.27;;;14.27;;
20557;SDS011;10437;48.156;11.530;2023-02-13T11:39:42;31.53;;;13.37;;
20557;SDS011;10437;48.156;11.530;2023-02-13T11:42:11;29.17;;;13.67;;
20557;SDS011;10437;48.156;11.530;2023-02-13T11:44:40;27.57;;;12.90;;
20557;SDS011;10437;48.156;11.530;2023-02-13T11:47:08;30.03;;;13.53;;
20557;SDS011;10437;48.156;11.530;2023-02-13T11:49:35;32.40;;;14.57;;
20557;SDS011;10437;48.156;11.530;2023-02-13T11:52:04;32.53;;;15.13;;
20557;SDS011;10437;48.156;11.530;2023-02-13T11:54:34;35.20;;;15.07;;
20557;SDS011;10437;48.156;11.530;2023-02-13T11:57:16;31.40;;;13.87;;
20557;SDS011;10437;48.156;11.530;2023-02-13T11:59:46;35.07;;;14.30;;
20557;SDS011;10437;48.156;11.530;2023-02-13T12:02:16;30.20;;;13.93;;
20557;SDS011;10437;48.156;11.530;2023-02-13T12:04:44;34.70;;;14.47;;
20557;SDS011;10437;48.156;11.530;2023-02-13T12:07:14;28.00;;;12.73;;
20557;SDS011;10437;48.156;11.530;2023-02-13T12:09:46;28.70;;;13.60;;
20557;SDS011;10437;48.156;11.530;2023-02-13T12:12:16;29.33;;;12.97;;
20557;SDS011;10437;48.156;11.530;2023-02-13T12:14:46;32.33;;;14.03;;
20557;SDS011;10437;48.156;11.530;2023-02-13T12:17:14;30.77;;;13.80;;
20557;SDS011;10437;48.156;11.530;2023-02-13T12:19:45;28.53;;;13.83;;
20557;SDS011;10437;48.156;11.530;2023-02-13T12:22:17;31.73;;;14.23;;
20557;SDS011;10437;48.156;11.530;2023-02-13T12:25:04;32.67;;;14.53;;
20557;SDS011;10437;48.156;11.530;2023-02-13T12:27:51;34.37;;;14.87;;
20557;SDS011;10437;48.156;11.530;2023-02-13T12:30:35;38.90;;;14.97;;
20557;SDS011;10437;48.156;11.530;2023-02-13T12:33:27;33.73;;;13.57;;
20557;SDS011;10437;48.156;11.530;2023-02-13T12:36:09;35.47;;;15.23;;
20557;SDS011;10437;48.156;11.530;2023-02-13T12:38:44;31.67;;;14.93;;
20557;SDS011;10437;48.156;11.530;2023-02-13T12:41:20;34.07;;;14.77;;
20557;SDS011;10437;48.156;11.530;2023-02-13T12:44:01;37.53;;;15.50;;
20557;SDS011;10437;48.156;11.530;2023-02-13T12:46:51;37.33;;;13.97;;
20557;SDS011;10437;48.156;11.530;2023-02-13T12:49:33;34.73;;;13.97;;
20557;SDS011;10437;48.156;11.530;2023-02-13T12:52:16;30.20;;;13.93;;
20557;SDS011;10437;48.156;11.530;2023-02-13T12:54:54;33.90;;;14.43;;
20557;SDS011;10437;48.156;11.530;2023-02-13T12:57:38;32.90;;;14.37;;
20557;SDS011;10437;48.156;11.530;2023-02-13T13:00:17;27.63;;;13.80;;
20557;SDS011;10437;48.156;11.530;2023-02-13T13:03:02;46.83;;;15.60;;
20557;SDS011;10437;48.156;11.530;2023-02-13T13:05:37;34.43;;;15.50;;
20557;SDS011;10437;48.156;11.530;2023-02-13T13:08:20;33.37;;;15.17;;
20557;SDS011;10437;48.156;11.530;2023-02-13T13:11:09;33.33;;;14.37;;
20557;SDS011;10437;48.156;11.530;2023-02-13T13:13:51;33.53;;;14.17;;
20557;SDS011;10437;48.156;11.530;2023-02-13T13:16:28;31.87;;;14.53;;
20557;SDS011;10437;48.156;11.530;2023-02-13T13:19:08;34.37;;;15.30;;
20557;SDS011;10437;48.156;11.530;2023-02-13T13:21:45;33.80;;;13.73;;
20557;SDS011;10437;48.156;11.530;2023-02-13T13:24:28;32.60;;;15.00;;
20557;SDS011;10437;48.156;11.530;2023-02-13T13:27:09;33.63;;;14.13;;
20557;SDS011;10437;48.156;11.530;2023-02-13T13:29:41;35.27;;;14.57;;
20557;SDS011;10437;48.156;11.530;2023-02-13T13:32:10;34.60;;;14.53;;
20557;SDS011;10437;48.156;11.530;2023-02-13T13:34:41;29.73;;;13.67;;
20557;SDS011;10437;48.156;11.530;2023-02-13T13:37:10;32.00;;;13.17;;
20557;SDS011;10437;48.156;11.530;2023-02-13T13:39:43;29.77;;;12.90;;
20557;SDS011;10437;48.156;11.530;2023-02-13T13:42:17;31.13;;;13.10;;
20557;SDS011;10437;48.156;11.530;2023-02-13T13:45:13;30.77;;;14.33;;
20557;SDS011;10437;48.156;11.530;2023-02-13T13:48:03;27.87;;;12.27;;
20557;SDS011;10437;48.156;11.530;2023-02-13T13:50:41;26.90;;;12.77;;
20557;SDS011;10437;48.156;11.530;2023-02-13T13:53:11;27.83;;;12.57;;
20557;SDS011;10437;48.156;11.530;2023-02-13T13:55:59;28.37;;;12.47;;
20557;SDS011;10437;48.156;11.530;2023-02-13T13:58:33;26.53;;;13.07;;
20557;SDS011;10437;48.156;11.530;2023-02-13T14:03:49;25.60;;;12.33;;
20557;SDS011;10437;48.156;11.530;2023-02-13T14:06:16;25.33;;;12.30;;
20557;SDS011;10437;48.156;11.530;2023-02-13T14:11:53;27.80;;;12.60;;
20557;SDS011;10437;48.156;11.530;2023-02-13T14:20:21;26.07;;;11.50;;
20557;SDS011;10437;48.156;11.530;2023-02-13T14:22:49;26.17;;;12.00;;
20557;SDS011;10437;48.156;11.530;2023-02-13T14:25:21;27.23;;;12.87;;
20557;SDS011;10437;48.156;11.530;2023-02-13T14:27:56;25.50;;;11.90;;
20557;SDS011;10437;48.156;11.530;2023-02-13T14:30:27;26.87;;;12.17;;
20557;SDS011;10437;48.156;11.530;2023-02-13T14:32:56;26.07;;;11.67;;
20557;SDS011;10437;48.156;11.530;2023-02-13T14:35:30;22.87;;;11.17;;
20557;SDS011;10437;48.156;11.530;2023-02-13T14:37:59;24.27;;;11.10;;
20557;SDS011;10437;48.156;11.530;2023-02-13T14:43:17;22.80;;;10.77;;
20557;SDS011;10437;48.156;11.530;2023-02-13T14:45:46;25.10;;;10.67;;
20557;SDS011;10437;48.156;11.530;2023-02-13T14:48:18;24.73;;;10.67;;
20557;SDS011;10437;48.156;11.530;2023-02-13T14:50:48;26.60;;;11.47;;
20557;SDS011;10437;48.156;11.530;2023-02-13T14:53:19;25.40;;;11.50;;
20557;SDS011;10437;48.156;11.530;2023-02-13T14:55:52;23.23;;;10.13;;
20557;SDS011;10437;48.156;11.530;2023-02-13T14:58:22;26.90;;;11.83;;
20557;SDS011;10437;48.156;11.530;2023-02-13T15:00:54;21.90;;;10.93;;